logo
Search for airport 
image banner adimage banner adimage banner ad
image banner ad

EHVL - Vlieland (Ehvl)

Located in , Netherlands

ICAO - EHVL, IATA -

Data provided by Airmate  

General information

Coordinates: N53°14'0" E4°52'60"
Elevation is 16 feet MSL.
 
View others Airports in Friesland

Operational data

Special qualification required
Current time UTC:
Current local time:
Weather
METAR: EHVL 141725Z AUTO 25020KT 9999 FEW013 SCT015 BKN038 16/13 Q1010 BLU
View NOTAMs / SUP AIP / TFR affecting this airport [VIEW]
Communications frequencies: [VIEW]

Runways:

Airport contact information

Address: Netherlands

Satellite view of EHVL